Time;durP1;ratioP1;P1;durP2;ratioP2;P2;SDS_P1;SDS_P2;PMS_P1;PMS_P2;Temp;Humidity;BMP_temperature;BMP_pressure;BME280_temperature;BME280_humidity;BME280_pressure;Samples;Min_cycle;Max_cycle;Signal;HPM_P1;HPM_P2
2022/11/22 00:01:01;;;;;;;8.60;2.10;;;8.90;99.90;;;;;;5051869;28;20028;-61
2022/11/22 00:03:27;;;;;;;9.45;2.10;;;8.20;99.90;;;;;;5051512;28;20045;-63
2022/11/22 00:05:53;;;;;;;5.80;1.75;;;8.00;99.90;;;;;;5051517;28;20028;-63
2022/11/22 00:08:19;;;;;;;7.15;1.90;;;7.90;99.90;;;;;;5051819;28;20135;-63
2022/11/22 00:10:46;;;;;;;6.90;1.83;;;8.00;99.90;;;;;;5051757;28;20032;-63
2022/11/22 00:13:12;;;;;;;9.20;2.15;;;8.00;99.90;;;;;;5051994;28;20066;-63
2022/11/22 00:15:37;;;;;;;9.32;2.00;;;8.00;99.90;;;;;;5051592;28;20017;-63
2022/11/22 00:18:03;;;;;;;13.55;2.47;;;8.00;99.90;;;;;;5051620;28;20033;-63
2022/11/22 00:20:29;;;;;;;13.73;3.28;;;8.00;99.90;;;;;;5051639;28;20433;-63
2022/11/22 00:22:57;;;;;;;14.45;3.53;;;8.10;99.90;;;;;;5051481;28;20456;-63
2022/11/22 00:25:22;;;;;;;11.95;3.03;;;8.10;99.90;;;;;;5051316;28;20052;-62
2022/11/22 00:27:48;;;;;;;15.43;3.17;;;8.20;99.90;;;;;;5051520;28;20482;-63
2022/11/22 00:30:14;;;;;;;12.27;2.65;;;8.30;99.90;;;;;;5051544;28;20060;-63
2022/11/22 00:32:39;;;;;;;13.82;2.88;;;8.30;99.90;;;;;;5051417;28;20028;-64
2022/11/22 00:35:06;;;;;;;15.13;3.15;;;8.40;99.90;;;;;;5051089;28;20033;-63
2022/11/22 00:37:31;;;;;;;11.82;3.10;;;8.50;99.90;;;;;;5051728;28;20025;-63
2022/11/22 00:39:57;;;;;;;15.77;3.03;;;8.60;99.90;;;;;;5051326;28;20044;-63
2022/11/22 00:42:23;;;;;;;17.00;3.42;;;8.50;99.90;;;;;;5051469;28;20481;-63
2022/11/22 00:44:48;;;;;;;14.48;3.03;;;8.60;99.90;;;;;;5051462;28;20386;-63
2022/11/22 00:47:14;;;;;;;17.20;3.72;;;8.50;99.90;;;;;;5050002;28;20108;-63
2022/11/22 00:49:40;;;;;;;14.30;3.30;;;8.60;99.90;;;;;;5051072;28;20028;-64
2022/11/22 00:52:05;;;;;;;14.85;3.25;;;8.80;99.90;;;;;;5051397;28;20025;-63
2022/11/22 00:54:31;;;;;;;15.68;3.42;;;8.80;99.90;;;;;;5051703;28;20035;-63
2022/11/22 00:56:57;;;;;;;16.67;3.72;;;8.80;99.90;;;;;;5051365;28;20029;-62
2022/11/22 00:59:22;;;;;;;19.25;3.80;;;8.90;99.90;;;;;;5051259;28;20111;-62
2022/11/22 01:01:48;;;;;;;21.42;3.90;;;8.80;99.90;;;;;;5051121;28;20025;-63
2022/11/22 01:04:14;;;;;;;24.08;4.20;;;8.80;99.90;;;;;;5050756;28;20036;-64
2022/11/22 01:06:39;;;;;;;23.85;5.05;;;8.90;99.90;;;;;;5051439;28;20033;-62
2022/11/22 01:09:05;;;;;;;25.40;4.80;;;8.90;99.90;;;;;;5053552;28;20020;-63
2022/11/22 01:11:31;;;;;;;21.45;4.47;;;8.80;99.90;;;;;;5054899;28;20074;-63
2022/11/22 01:13:56;;;;;;;24.63;5.03;;;8.90;99.90;;;;;;5054836;28;20107;-63
2022/11/22 01:16:22;;;;;;;21.02;4.45;;;8.80;99.90;;;;;;5055155;28;20470;-63
2022/11/22 01:18:48;;;;;;;24.33;4.57;;;8.90;99.90;;;;;;5054398;28;20082;-63
2022/11/22 01:21:13;;;;;;;21.67;4.45;;;8.90;99.90;;;;;;5054821;28;20387;-63
2022/11/22 01:23:39;;;;;;;25.88;5.22;;;8.70;99.90;;;;;;5054699;28;20033;-63
2022/11/22 01:26:08;;;;;;;20.23;4.53;;;8.60;99.90;;;;;;5054471;28;20021;-63
2022/11/22 01:28:34;;;;;;;29.65;5.03;;;8.60;99.90;;;;;;5054626;28;20060;-64
2022/11/22 01:31:00;;;;;;;20.42;5.47;;;8.60;99.90;;;;;;5054442;28;20550;-63
2022/11/22 01:33:27;;;;;;;23.92;5.22;;;8.60;99.90;;;;;;5054218;28;20067;-63
2022/11/22 01:35:53;;;;;;;23.02;4.55;;;8.70;99.90;;;;;;5054324;28;20017;-63
2022/11/22 01:38:18;;;;;;;24.45;5.13;;;8.60;99.90;;;;;;5054861;28;20036;-63
2022/11/22 01:40:44;;;;;;;29.08;5.72;;;8.70;99.90;;;;;;5054300;28;20041;-63
2022/11/22 01:43:21;;;;;;;30.25;5.82;;;8.80;99.90;;;;;;5054345;28;20402;-63
2022/11/22 01:45:51;;;;;;;24.50;5.80;;;8.90;99.90;;;;;;5053951;28;20103;-63
2022/11/22 01:48:37;;;;;;;26.10;5.95;;;9.00;99.90;;;;;;5054262;28;20055;-63
2022/11/22 01:51:17;;;;;;;24.63;5.15;;;9.20;99.90;;;;;;5054313;28;20083;-63
2022/11/22 01:53:43;;;;;;;28.23;5.82;;;9.30;99.90;;;;;;5052866;28;20025;-62
2022/11/22 01:56:13;;;;;;;25.40;5.28;;;9.30;99.90;;;;;;5054178;28;20017;-64
2022/11/22 01:58:42;;;;;;;25.15;5.30;;;9.20;99.90;;;;;;5054135;28;20120;-63
2022/11/22 02:01:08;;;;;;;20.17;5.18;;;9.20;99.90;;;;;;5053743;28;20104;-63
2022/11/22 02:03:37;;;;;;;23.63;5.45;;;9.20;99.90;;;;;;5054082;28;20146;-64
2022/11/22 02:06:04;;;;;;;25.65;5.22;;;9.20;99.90;;;;;;5054221;28;20147;-63
2022/11/22 02:08:49;;;;;;;24.15;5.60;;;9.40;99.90;;;;;;5054031;28;20029;-63
2022/11/22 02:11:17;;;;;;;25.92;5.05;;;9.70;99.90;;;;;;5053980;28;20110;-64
2022/11/22 02:13:44;;;;;;;22.73;5.57;;;9.80;99.90;;;;;;5053828;28;20044;-63
2022/11/22 02:16:10;;;;;;;23.65;5.70;;;9.70;99.90;;;;;;5053474;28;20021;-63
2022/11/22 02:18:38;;;;;;;26.25;5.38;;;9.80;99.90;;;;;;5053752;28;20567;-63
2022/11/22 02:21:04;;;;;;;31.73;6.57;;;9.90;99.90;;;;;;5052813;28;20022;-63
2022/11/22 02:23:30;;;;;;;22.63;5.63;;;10.10;99.90;;;;;;5053510;28;20048;-63
2022/11/22 02:25:58;;;;;;;20.58;4.88;;;10.20;99.90;;;;;;5053782;28;20406;-63
2022/11/22 02:28:24;;;;;;;17.70;4.60;;;9.90;99.90;;;;;;5053447;28;20025;-63
2022/11/22 02:30:50;;;;;;;21.13;4.72;;;9.80;99.90;;;;;;5053235;28;20470;-63
2022/11/22 02:33:16;;;;;;;22.65;5.03;;;9.60;99.90;;;;;;5053531;28;20036;-63
2022/11/22 02:35:43;;;;;;;20.95;4.78;;;9.70;99.90;;;;;;5053199;28;20489;-63
2022/11/22 02:38:13;;;;;;;25.08;5.05;;;9.60;99.90;;;;;;5053212;28;20078;-64
2022/11/22 02:40:50;;;;;;;24.70;5.00;;;9.60;99.90;;;;;;5053093;28;20068;-64
2022/11/22 02:43:29;;;;;;;22.05;5.68;;;9.60;99.90;;;;;;5052200;28;20040;-63
2022/11/22 02:46:01;;;;;;;24.63;5.63;;;9.50;99.90;;;;;;5053230;28;20013;-63
2022/11/22 02:48:27;;;;;;;26.38;5.63;;;9.40;99.90;;;;;;5053215;28;20120;-62
2022/11/22 02:50:52;;;;;;;22.40;5.97;;;9.30;99.90;;;;;;5053130;28;20565;-63
2022/11/22 02:53:18;;;;;;;29.83;6.63;;;9.40;99.90;;;;;;5052984;28;20052;-63
2022/11/22 02:55:44;;;;;;;33.60;5.90;;;9.50;99.90;;;;;;5053054;28;20032;-63
2022/11/22 02:58:09;;;;;;;24.55;5.75;;;9.50;99.90;;;;;;5052920;28;20104;-63
2022/11/22 03:00:37;;;;;;;27.10;6.00;;;9.50;99.90;;;;;;5052879;28;20497;-63
2022/11/22 03:03:03;;;;;;;24.40;5.43;;;9.50;99.90;;;;;;5052754;28;20057;-62
2022/11/22 03:05:28;;;;;;;25.63;5.43;;;9.50;99.90;;;;;;5052704;28;20068;-63
2022/11/22 03:07:54;;;;;;;22.52;5.38;;;9.50;99.90;;;;;;5053122;28;20130;-63
2022/11/22 03:10:20;;;;;;;21.23;4.65;;;9.50;99.90;;;;;;5052850;28;20029;-63
2022/11/22 03:12:45;;;;;;;18.48;4.25;;;9.50;99.90;;;;;;5052146;28;20044;-63
2022/11/22 03:15:11;;;;;;;18.77;4.15;;;9.40;99.90;;;;;;5052618;28;20479;-64
2022/11/22 03:17:37;;;;;;;20.98;4.53;;;9.30;99.90;;;;;;5052899;28;20029;-63
2022/11/22 03:20:03;;;;;;;18.73;4.97;;;9.30;99.90;;;;;;5052543;28;20521;-63
2022/11/22 03:22:29;;;;;;;19.73;4.18;;;9.20;99.90;;;;;;5052516;28;20086;-63
2022/11/22 03:24:54;;;;;;;19.85;4.35;;;9.10;99.90;;;;;;5052266;28;20135;-64
2022/11/22 03:27:20;;;;;;;25.30;4.88;;;9.00;99.90;;;;;;5052382;28;20025;-63
2022/11/22 03:29:46;;;;;;;21.98;4.43;;;9.00;99.90;;;;;;5052416;28;20505;-64
2022/11/22 03:32:12;;;;;;;23.33;4.90;;;8.90;99.90;;;;;;5052228;28;20029;-64
2022/11/22 03:34:37;;;;;;;19.10;4.03;;;8.80;99.90;;;;;;5052310;28;20048;-63
2022/11/22 03:37:03;;;;;;;23.35;4.97;;;8.70;99.90;;;;;;5052133;28;20025;-62
2022/11/22 03:39:29;;;;;;;19.52;4.45;;;8.80;99.90;;;;;;5051989;28;20501;-62
2022/11/22 03:41:55;;;;;;;23.63;5.00;;;8.60;99.90;;;;;;5051717;28;20099;-63
2022/11/22 03:44:21;;;;;;;25.23;4.72;;;8.60;99.90;;;;;;5052074;28;20033;-63
2022/11/22 03:46:47;;;;;;;28.75;5.72;;;8.50;99.90;;;;;;5052336;28;20029;-63
2022/11/22 03:49:13;;;;;;;20.40;4.97;;;8.40;99.90;;;;;;5051656;28;20047;-64
2022/11/22 03:51:39;;;;;;;28.13;6.00;;;8.40;99.90;;;;;;5052022;28;20418;-64
2022/11/22 03:54:04;;;;;;;20.50;4.55;;;8.50;99.90;;;;;;5052279;28;20053;-63
2022/11/22 03:56:30;;;;;;;24.33;5.10;;;8.50;99.90;;;;;;5051505;28;20052;-63
2022/11/22 03:58:56;;;;;;;23.70;5.25;;;8.70;99.90;;;;;;5051898;28;20032;-64
2022/11/22 04:01:22;;;;;;;17.95;4.20;;;9.00;99.90;;;;;;5051891;28;20055;-63
2022/11/22 04:03:47;;;;;;;26.75;4.95;;;8.90;99.90;;;;;;5051920;28;20041;-63
2022/11/22 04:06:13;;;;;;;20.30;4.68;;;8.60;99.90;;;;;;5052013;28;20100;-63
2022/11/22 04:08:39;;;;;;;25.95;5.10;;;8.20;99.90;;;;;;5051807;28;20036;-63
2022/11/22 04:11:05;;;;;;;23.83;4.78;;;8.20;99.90;;;;;;5051478;28;20025;-63
2022/11/22 04:16:14;;;;;;;23.45;6.03;;;8.10;99.90;;;;;;5051961;28;20547;-63
2022/11/22 04:18:40;;;;;;;25.00;5.22;;;8.10;99.90;;;;;;5051631;28;20021;-63
2022/11/22 04:25:12;;;;;;;26.85;6.47;;;8.70;99.90;;;;;;5051456;28;20421;-64
2022/11/22 04:26:36;;;;;;;25.10;5.60;;;9.00;99.90;;;;;;5051259;28;20784;-63
2022/11/22 04:29:02;;;;;;;29.90;6.38;;;9.10;99.90;;;;;;5051788;28;20029;-63
2022/11/22 04:34:12;;;;;;;24.98;5.28;;;8.50;99.90;;;;;;5051872;28;20032;-62
2022/11/22 04:36:38;;;;;;;29.98;5.40;;;8.30;99.90;;;;;;5051593;28;20029;-62
2022/11/22 04:39:04;;;;;;;28.55;6.03;;;8.10;99.90;;;;;;5051642;28;20090;-63
2022/11/22 04:41:29;;;;;;;28.27;5.65;;;8.10;99.90;;;;;;5050997;28;20072;-63
2022/11/22 04:46:39;;;;;;;34.83;6.07;;;8.00;99.90;;;;;;5055631;28;20033;-63
2022/11/22 04:49:05;;;;;;;25.05;5.40;;;7.90;99.90;;;;;;5055638;28;20036;-63
2022/11/22 04:54:15;;;;;;;30.15;5.70;;;8.40;99.90;;;;;;5055218;28;20048;-63
2022/11/22 04:56:40;;;;;;;30.40;5.82;;;8.70;99.90;;;;;;5055274;28;20029;-63
2022/11/22 04:59:06;;;;;;;27.38;6.10;;;8.80;99.90;;;;;;5055350;28;20028;-63
2022/11/22 05:01:32;;;;;;;30.33;6.05;;;8.80;99.90;;;;;;5055010;28;20021;-64
2022/11/22 05:03:58;;;;;;;29.35;6.40;;;9.00;99.90;;;;;;5055131;28;20649;-64
2022/11/22 05:06:23;;;;;;;24.38;4.82;;;9.10;99.90;;;;;;5054966;28;20033;-64
2022/11/22 05:08:49;;;;;;;17.10;4.57;;;9.30;99.90;;;;;;5054941;28;20094;-63
2022/11/22 05:11:15;;;;;;;18.50;4.38;;;9.20;99.90;;;;;;5055028;28;20532;-63
2022/11/22 05:13:41;;;;;;;20.05;4.78;;;9.10;99.90;;;;;;5054791;28;20029;-63
2022/11/22 05:16:09;;;;;;;25.75;4.85;;;9.10;99.90;;;;;;5054766;28;20031;-63
2022/11/22 05:18:36;;;;;;;21.52;4.40;;;9.00;99.90;;;;;;5053666;28;20029;-63
2022/11/22 05:21:20;;;;;;;25.50;4.95;;;8.90;99.90;;;;;;5055101;28;20017;-63
2022/11/22 05:23:54;;;;;;;21.00;4.55;;;9.00;99.90;;;;;;5054450;28;20040;-63
2022/11/22 05:26:34;;;;;;;24.00;4.90;;;8.90;99.90;;;;;;5054863;28;20042;-63
2022/11/22 05:29:05;;;;;;;23.02;5.07;;;8.90;99.90;;;;;;5054641;28;20017;-64
2022/11/22 05:31:32;;;;;;;21.85;4.88;;;8.70;99.90;;;;;;5054694;28;20029;-63
2022/11/22 05:33:58;;;;;;;22.70;5.20;;;8.70;99.90;;;;;;5054468;28;20031;-63
2022/11/22 05:36:25;;;;;;;23.90;4.68;;;8.60;99.90;;;;;;5054953;28;20021;-63
2022/11/22 05:38:51;;;;;;;26.17;4.97;;;8.60;99.90;;;;;;5054181;28;20025;-63
2022/11/22 05:41:18;;;;;;;18.83;4.60;;;8.30;99.90;;;;;;5054391;28;20045;-63
2022/11/22 05:43:44;;;;;;;25.30;5.32;;;8.10;99.90;;;;;;5054363;28;20036;-63
2022/11/22 05:46:18;;;;;;;25.63;5.55;;;8.20;99.90;;;;;;5054472;28;20021;-64
2022/11/22 05:48:45;;;;;;;21.77;4.90;;;8.30;99.90;;;;;;5054305;28;20051;-64
2022/11/22 05:51:13;;;;;;;23.88;4.72;;;8.40;99.90;;;;;;5054427;28;20123;-63
2022/11/22 05:53:39;;;;;;;22.38;4.72;;;8.40;99.90;;;;;;5053864;28;20033;-63
2022/11/22 05:56:07;;;;;;;23.50;4.78;;;8.60;99.90;;;;;;5053219;28;20028;-63
2022/11/22 05:58:33;;;;;;;24.95;5.32;;;8.60;99.90;;;;;;5054192;28;20087;-63
2022/11/22 06:01:07;;;;;;;23.70;4.65;;;8.70;99.90;;;;;;5054163;28;20491;-64
2022/11/22 06:03:33;;;;;;;19.20;5.03;;;8.80;99.90;;;;;;5053911;28;20043;-64
2022/11/22 06:05:59;;;;;;;17.38;3.72;;;8.90;99.90;;;;;;5054333;28;20401;-64
2022/11/22 06:08:27;;;;;;;16.98;4.50;;;8.90;99.90;;;;;;5053877;28;20040;-63
2022/11/22 06:10:53;;;;;;;16.65;3.50;;;8.70;99.90;;;;;;5053884;28;20469;-63
2022/11/22 06:13:18;;;;;;;19.25;4.35;;;8.60;99.90;;;;;;5054148;28;20029;-64
2022/11/22 06:15:44;;;;;;;19.30;4.53;;;8.60;99.90;;;;;;5053910;28;20377;-64
2022/11/22 06:18:09;;;;;;;23.75;4.75;;;8.70;99.90;;;;;;5052481;28;20029;-63
2022/11/22 06:20:35;;;;;;;20.40;4.63;;;8.80;99.90;;;;;;5053842;28;20063;-63
2022/11/22 06:23:01;;;;;;;22.15;4.88;;;8.90;99.90;;;;;;5053253;28;20397;-63
2022/11/22 06:25:27;;;;;;;20.52;4.65;;;8.90;99.90;;;;;;5053384;28;20497;-64
2022/11/22 06:27:53;;;;;;;21.02;4.43;;;8.80;99.90;;;;;;5053595;28;20127;-64
2022/11/22 06:30:18;;;;;;;18.73;4.75;;;8.70;99.90;;;;;;5053668;28;20095;-63
2022/11/22 06:32:44;;;;;;;24.40;4.72;;;8.60;99.90;;;;;;5053843;28;20021;-63
2022/11/22 06:35:10;;;;;;;27.50;5.22;;;8.50;99.90;;;;;;5053370;28;20482;-63
2022/11/22 06:37:36;;;;;;;21.10;4.45;;;8.80;99.90;;;;;;5053024;28;20029;-62
2022/11/22 06:40:02;;;;;;;20.35;4.55;;;9.00;99.90;;;;;;5053581;28;20088;-64
2022/11/22 06:42:27;;;;;;;20.85;3.92;;;9.10;99.90;;;;;;5053294;28;20040;-64
2022/11/22 06:44:53;;;;;;;22.40;4.40;;;9.10;99.90;;;;;;5053242;28;20067;-64
2022/11/22 06:47:19;;;;;;;17.60;4.70;;;9.00;99.90;;;;;;5053658;28;20028;-64
2022/11/22 06:49:45;;;;;;;16.17;4.03;;;8.90;99.90;;;;;;5053265;28;20052;-63
2022/11/22 06:52:11;;;;;;;13.98;3.63;;;8.80;99.90;;;;;;5052893;28;20029;-63
2022/11/22 06:54:36;;;;;;;15.65;3.97;;;8.60;99.90;;;;;;5053116;28;20033;-63
2022/11/22 06:57:02;;;;;;;18.23;4.00;;;8.60;99.90;;;;;;5053057;28;20033;-63
2022/11/22 06:59:28;;;;;;;17.65;5.00;;;8.80;99.90;;;;;;5052952;28;20035;-64
2022/11/22 07:01:53;;;;;;;18.90;4.63;;;8.90;99.90;;;;;;5053282;28;20036;-66
2022/11/22 07:04:19;;;;;;;20.88;4.53;;;8.90;99.90;;;;;;5053080;28;20037;-62
2022/11/22 07:06:46;;;;;;;18.42;4.38;;;8.90;99.90;;;;;;5052148;28;20025;-62
2022/11/22 07:09:12;;;;;;;19.58;4.10;;;9.00;99.90;;;;;;5053217;28;20059;-64
2022/11/22 07:11:38;;;;;;;20.33;4.85;;;8.90;99.90;;;;;;5052731;28;20017;-62
2022/11/22 07:14:05;;;;;;;16.80;3.63;;;8.90;99.90;;;;;;5052636;28;20078;-63
2022/11/22 07:16:31;;;;;;;18.73;3.70;;;8.80;99.90;;;;;;5052812;28;20025;-63
2022/11/22 07:18:59;;;;;;;17.20;3.92;;;8.70;99.90;;;;;;5052832;28;20385;-63
2022/11/22 07:21:25;;;;;;;15.90;3.70;;;8.70;99.90;;;;;;5052228;28;20426;-63
2022/11/22 07:23:53;;;;;;;13.80;3.65;;;8.70;99.90;;;;;;5052487;28;20032;-64
2022/11/22 07:26:20;;;;;;;18.80;3.65;;;8.60;99.90;;;;;;5052557;28;20033;-63
2022/11/22 07:28:46;;;;;;;14.45;3.85;;;8.60;99.90;;;;;;5052928;28;20025;-63
2022/11/22 07:31:14;;;;;;;14.35;3.55;;;8.60;99.90;;;;;;5052414;28;20068;-64
2022/11/22 07:33:41;;;;;;;17.83;3.60;;;8.40;99.90;;;;;;5051893;28;20401;-63
2022/11/22 07:36:12;;;;;;;12.30;2.97;;;8.30;99.90;;;;;;5052068;28;20056;-63
2022/11/22 07:38:38;;;;;;;15.07;3.50;;;8.40;99.90;;;;;;5052376;28;20029;-63
2022/11/22 07:41:05;;;;;;;20.50;3.75;;;8.50;99.90;;;;;;5051842;28;20167;-63
2022/11/22 07:43:33;;;;;;;16.00;4.10;;;8.60;99.90;;;;;;5051798;28;20049;-63
2022/11/22 07:45:59;;;;;;;14.35;3.78;;;8.70;99.90;;;;;;5051903;28;20021;-63
2022/11/22 07:48:25;;;;;;;41.55;24.40;;;8.90;99.90;;;;;;5051585;28;20021;-63
2022/11/22 07:50:51;;;;;;;26.13;12.45;;;8.70;99.90;;;;;;5051706;28;20032;-64
2022/11/22 07:53:16;;;;;;;22.75;9.80;;;9.20;99.90;;;;;;5051893;28;20131;-64
2022/11/22 07:55:42;;;;;;;25.98;9.43;;;10.20;99.90;;;;;;5052332;28;20051;-64
2022/11/22 07:58:08;;;;;;;18.92;6.57;;;9.60;99.90;;;;;;5051877;28;20024;-63
2022/11/22 08:00:33;;;;;;;23.13;7.22;;;9.10;99.90;;;;;;5051967;28;20013;-64
2022/11/22 08:02:59;;;;;;;17.15;6.88;;;8.60;99.90;;;;;;5051864;28;20037;-63
2022/11/22 08:05:25;;;;;;;14.25;4.85;;;8.60;99.90;;;;;;5051895;28;20025;-63
2022/11/22 08:07:52;;;;;;;17.20;5.45;;;8.70;99.90;;;;;;5051929;28;20021;-64
2022/11/22 08:10:18;;;;;;;19.73;6.05;;;8.80;99.90;;;;;;5051813;28;20025;-63
2022/11/22 08:12:44;;;;;;;15.10;4.90;;;8.60;99.90;;;;;;5051823;28;20036;-63
2022/11/22 08:15:13;;;;;;;18.02;5.38;;;8.80;99.90;;;;;;5051654;28;20031;-63
2022/11/22 08:17:39;;;;;;;19.95;5.70;;;8.70;99.90;;;;;;5050624;28;20025;-63
2022/11/22 08:20:08;;;;;;;19.95;7.03;;;8.60;99.90;;;;;;5051668;28;20032;-63
2022/11/22 08:22:35;;;;;;;20.77;8.82;;;8.70;99.90;;;;;;5051259;28;20048;-64
2022/11/22 08:25:00;;;;;;;36.45;18.33;;;9.00;99.90;;;;;;5051751;28;20025;-63
2022/11/22 08:27:26;;;;;;;24.08;14.10;;;9.00;99.90;;;;;;5051691;28;20025;-63
2022/11/22 08:29:52;;;;;;;22.00;9.70;;;9.00;99.90;;;;;;5051638;28;20486;-64
2022/11/22 08:32:18;;;;;;;24.27;9.30;;;9.30;99.90;;;;;;5051352;28;20029;-63
2022/11/22 08:34:43;;;;;;;23.77;7.85;;;9.30;99.90;;;;;;5051286;28;20029;-63
2022/11/22 08:37:09;;;;;;;18.65;7.40;;;9.40;99.90;;;;;;5050179;28;20028;-63
2022/11/22 08:39:35;;;;;;;21.33;6.95;;;9.40;99.90;;;;;;5051464;28;20048;-64
2022/11/22 08:42:00;;;;;;;30.88;9.90;;;9.40;99.90;;;;;;5050291;28;20120;-63
2022/11/22 08:44:26;;;;;;;25.48;5.72;;;9.30;99.90;;;;;;5051307;28;20409;-64
2022/11/22 08:46:52;;;;;;;19.52;4.55;;;9.40;99.90;;;;;;5051116;28;20036;-63
2022/11/22 08:49:17;;;;;;;19.40;4.72;;;9.50;99.90;;;;;;5051478;28;20083;-63
2022/11/22 08:51:44;;;;;;;15.75;3.80;;;9.50;99.90;;;;;;5051341;28;20049;-61
2022/11/22 08:54:14;;;;;;;19.80;3.97;;;9.60;99.90;;;;;;5051286;28;20104;-63
2022/11/22 08:56:40;;;;;;;16.25;3.53;;;9.50;99.90;;;;;;5051212;28;20029;-62
2022/11/22 08:59:06;;;;;;;18.13;3.45;;;9.70;99.90;;;;;;5051525;28;20029;-62
2022/11/22 09:01:32;;;;;;;12.60;3.40;;;9.90;99.90;;;;;;5050893;28;20086;-63
2022/11/22 09:03:58;;;;;;;15.23;3.90;;;10.00;99.90;;;;;;5051039;28;20490;-63
2022/11/22 09:06:24;;;;;;;20.63;4.25;;;10.00;99.90;;;;;;5050929;28;20029;-63
2022/11/22 09:08:50;;;;;;;19.65;4.20;;;10.00;99.90;;;;;;5050489;28;20078;-62
2022/11/22 09:11:17;;;;;;;18.30;3.92;;;10.20;99.90;;;;;;5051091;28;20100;-64
2022/11/22 09:13:43;;;;;;;16.55;4.30;;;10.30;99.90;;;;;;5050707;28;20036;-63
2022/11/22 09:16:12;;;;;;;20.35;5.15;;;10.30;99.90;;;;;;5050654;28;20120;-64
2022/11/22 09:18:39;;;;;;;13.93;3.72;;;10.50;99.90;;;;;;5050019;28;20024;-63
2022/11/22 09:21:10;;;;;;;14.48;3.97;;;10.40;99.90;;;;;;5050579;28;20029;-62
2022/11/22 09:23:36;;;;;;;14.40;3.90;;;10.20;99.90;;;;;;5050434;28;20040;-62
2022/11/22 09:26:05;;;;;;;14.93;4.40;;;10.00;99.90;;;;;;5050703;28;20025;-63
2022/11/22 09:28:32;;;;;;;19.27;4.22;;;10.00;99.90;;;;;;5050841;28;20114;-64
2022/11/22 09:31:03;;;;;;;15.60;3.65;;;10.10;99.90;;;;;;5053801;28;20033;-62
2022/11/22 09:33:29;;;;;;;18.77;3.88;;;10.40;99.90;;;;;;5053858;28;20057;-64
2022/11/22 09:36:00;;;;;;;18.23;3.80;;;10.60;99.90;;;;;;5052499;28;20025;-63
2022/11/22 09:38:26;;;;;;;18.42;4.10;;;10.80;99.90;;;;;;5054173;28;20025;-64
2022/11/22 09:40:52;;;;;;;17.05;3.63;;;11.00;99.90;;;;;;5053901;28;20497;-63
2022/11/22 09:43:23;;;;;;;16.60;3.88;;;11.40;99.90;;;;;;5053698;28;20036;-62
2022/11/22 09:46:07;;;;;;;17.90;3.97;;;12.00;99.90;;;;;;5053861;28;20036;-63
2022/11/22 09:48:47;;;;;;;17.55;3.80;;;12.40;99.90;;;;;;5053460;28;20113;-65
2022/11/22 09:51:27;;;;;;;18.05;3.90;;;12.00;99.90;;;;;;5053596;28;20025;-63
2022/11/22 09:53:59;;;;;;;17.92;3.80;;;11.60;99.90;;;;;;5053224;28;20040;-62
2022/11/22 09:56:27;;;;;;;18.67;4.45;;;11.20;99.90;;;;;;5053868;28;20025;-64
2022/11/22 09:59:26;;;;;;;17.40;3.60;;;12.60;99.90;;;;;;5053967;28;20029;-63
2022/11/22 10:02:17;;;;;;;12.73;3.42;;;14.30;99.90;;;;;;5054111;28;20029;-64
2022/11/22 10:04:47;;;;;;;16.35;4.00;;;13.20;99.90;;;;;;5011089;28;20128;-63
2022/11/22 10:07:35;;;;;;;16.42;3.72;;;12.10;99.90;;;;;;5011963;28;20041;-63
2022/11/22 10:10:02;;;;;;;18.13;4.03;;;12.50;99.90;;;;;;5012176;28;20062;-65
2022/11/22 10:12:47;;;;;;;15.45;3.85;;;12.10;99.90;;;;;;5012018;28;20100;-64
2022/11/22 10:15:43;;;;;;;16.80;4.47;;;11.90;99.90;;;;;;5010889;28;20606;-63
2022/11/22 10:18:46;;;;;;;16.48;4.00;;;11.70;99.90;;;;;;5011654;28;20055;-62
2022/11/22 10:21:13;;;;;;;11.43;3.15;;;11.30;99.90;;;;;;4953280;29;20042;-64
2022/11/22 10:23:42;;;;;;;14.25;3.15;;;11.10;99.90;;;;;;4953516;29;20058;-62
2022/11/22 10:26:24;;;;;;;10.50;2.88;;;10.90;99.90;;;;;;4953278;29;20054;-63
2022/11/22 10:29:11;;;;;;;11.63;2.53;;;10.80;99.90;;;;;;4952998;29;20055;-64
2022/11/22 10:31:42;;;;;;;10.25;2.70;;;10.90;99.90;;;;;;4952803;29;20051;-63
2022/11/22 10:34:37;;;;;;;8.70;2.33;;;11.10;99.90;;;;;;4952392;29;20019;-63
2022/11/22 10:37:32;;;;;;;10.35;3.15;;;11.20;99.90;;;;;;4952653;29;20035;-62
2022/11/22 10:40:44;;;;;;;8.68;2.63;;;11.40;99.90;;;;;;4953032;28;20506;-63
2022/11/22 10:43:15;;;;;;;12.20;2.90;;;11.50;99.90;;;;;;4970813;28;20570;-63
2022/11/22 10:46:00;;;;;;;10.73;2.50;;;11.40;99.90;;;;;;4971442;28;20430;-64
2022/11/22 10:49:06;;;;;;;13.05;2.65;;;11.50;99.90;;;;;;4972245;28;20396;-63
2022/11/22 10:51:57;;;;;;;12.43;2.80;;;11.60;99.90;;;;;;4968699;28;20041;-62
2022/11/22 10:54:36;;;;;;;14.32;2.88;;;11.70;99.90;;;;;;4952994;28;20035;-64
2022/11/22 10:57:14;;;;;;;10.95;3.00;;;11.60;99.90;;;;;;4989581;28;20515;-64
2022/11/22 11:00:01;;;;;;;15.23;2.75;;;11.70;99.90;;;;;;5010999;28;20048;-63
2022/11/22 11:02:37;;;;;;;19.60;3.15;;;11.80;99.90;;;;;;5011310;28;20201;-63
2022/11/22 11:05:09;;;;;;;15.38;2.97;;;12.00;99.90;;;;;;5010803;28;20482;-64
2022/11/22 11:07:40;;;;;;;12.93;3.00;;;12.20;99.90;;;;;;5010741;28;20076;-63
2022/11/22 11:10:19;;;;;;;15.30;3.25;;;12.20;99.90;;;;;;5011144;28;20045;-64
2022/11/22 11:12:59;;;;;;;12.52;3.28;;;12.30;99.90;;;;;;5010024;28;20049;-64
2022/11/22 11:15:38;;;;;;;13.82;3.25;;;12.30;99.90;;;;;;5010213;28;20092;-64
2022/11/22 11:18:14;;;;;;;12.05;2.85;;;12.30;99.90;;;;;;5010599;28;20558;-63
2022/11/22 11:20:42;;;;;;;16.25;3.40;;;12.10;99.90;;;;;;5010913;28;20022;-63
2022/11/22 11:23:09;;;;;;;13.02;4.15;;;12.20;99.90;;;;;;5010330;28;20034;-63
2022/11/22 11:25:39;;;;;;;15.60;3.10;;;12.20;99.90;;;;;;5024960;28;20079;-63
2022/11/22 11:28:20;;;;;;;12.73;4.15;;;12.10;99.90;;;;;;5030107;28;20032;-63
2022/11/22 11:30:57;;;;;;;13.65;3.20;;;12.30;99.90;;;;;;5030810;28;20442;-64
2022/11/22 11:33:27;;;;;;;12.50;2.95;;;12.40;99.90;;;;;;5032380;28;20025;-62
2022/11/22 11:36:03;;;;;;;12.90;2.67;;;12.40;99.90;;;;;;5042279;28;20058;-64
2022/11/22 11:38:36;;;;;;;16.65;3.22;;;12.50;99.90;;;;;;5052626;28;20025;-63
2022/11/22 11:41:32;;;;;;;12.15;3.08;;;12.40;99.90;;;;;;5051834;28;20103;-64
2022/11/22 11:44:32;;;;;;;14.15;3.25;;;12.10;99.90;;;;;;5051948;28;20037;-63
2022/11/22 11:46:58;;;;;;;13.13;3.22;;;11.90;99.90;;;;;;5051982;28;20551;-63
2022/11/22 11:49:29;;;;;;;15.05;3.10;;;11.90;99.90;;;;;;5052339;28;20108;-63
2022/11/22 11:52:03;;;;;;;12.95;3.28;;;11.90;99.90;;;;;;5051838;28;20035;-62
2022/11/22 11:54:28;;;;;;;;;;;11.90;99.90;;;;;;5049806;28;20024;-63
2022/11/22 11:56:59;;;;;;;14.45;3.20;;;11.90;99.90;;;;;;5051127;28;19909;-63
2022/11/22 11:59:37;;;;;;;15.27;3.70;;;11.90;99.90;;;;;;5051615;28;20043;-64
2022/11/22 12:02:18;;;;;;;14.48;3.67;;;11.70;99.90;;;;;;5051501;28;20467;-63
2022/11/22 12:04:54;;;;;;;25.45;10.25;;;11.70;99.90;;;;;;5051077;28;20037;-63
2022/11/22 12:07:25;;;;;;;14.23;4.80;;;11.80;99.90;;;;;;5051356;28;20025;-63
2022/11/22 12:09:52;;;;;;;13.25;3.78;;;12.10;99.90;;;;;;5051626;28;20036;-64
2022/11/22 12:12:29;;;;;;;15.40;3.55;;;12.30;99.90;;;;;;5051678;28;20025;-63
2022/11/22 12:15:17;;;;;;;13.77;3.50;;;12.40;99.90;;;;;;5050967;28;20032;-63
2022/11/22 12:17:56;;;;;;;16.15;4.13;;;12.60;99.90;;;;;;5051617;28;20032;-63
2022/11/22 12:20:28;;;;;;;13.15;3.92;;;12.80;99.90;;;;;;5051524;28;20029;-63
2022/11/22 12:23:08;;;;;;;14.65;4.68;;;12.70;99.90;;;;;;5051190;28;20070;-63
2022/11/22 12:25:37;;;;;;;12.15;5.35;;;12.70;99.90;;;;;;5050600;28;20067;-63
2022/11/22 12:28:23;;;;;;;14.25;5.15;;;12.80;99.90;;;;;;5051640;28;20092;-63
2022/11/22 12:31:08;;;;;;;10.77;3.90;;;12.80;99.90;;;;;;5051431;28;20505;-65
2022/11/22 12:33:39;;;;;;;12.63;3.60;;;12.70;99.90;;;;;;5051368;28;20036;-63
2022/11/22 12:36:14;;;;;;;11.88;3.60;;;12.60;99.90;;;;;;5030729;28;20398;-63
2022/11/22 12:38:43;;;;;;;12.68;3.15;;;12.80;99.90;;;;;;5031103;28;20021;-64
2022/11/22 12:41:12;;;;;;;13.73;3.50;;;12.60;99.90;;;;;;5031388;28;20091;-64
2022/11/22 12:43:41;;;;;;;10.68;3.00;;;12.60;99.90;;;;;;5031543;28;20033;-64
2022/11/22 12:46:36;;;;;;;12.20;3.40;;;12.50;99.90;;;;;;5031813;28;20036;-64
2022/11/22 12:49:24;;;;;;;12.07;3.20;;;12.50;99.90;;;;;;5031414;28;20471;-64
2022/11/22 12:51:58;;;;;;;17.80;3.50;;;12.40;99.90;;;;;;5031457;28;20033;-64
2022/11/22 12:54:34;;;;;;;13.40;4.88;;;12.40;99.90;;;;;;5030909;28;20033;-64
2022/11/22 12:57:21;;;;;;;22.88;13.52;;;12.40;99.90;;;;;;5031749;28;20099;-63
2022/11/22 13:00:01;;;;;;;18.08;4.43;;;12.30;99.90;;;;;;5031572;28;20072;-64
2022/11/22 13:02:43;;;;;;;17.58;4.10;;;12.20;99.90;;;;;;5031372;28;20033;-63
2022/11/22 13:05:15;;;;;;;17.55;4.45;;;12.30;99.90;;;;;;5033487;28;20047;-64
2022/11/22 13:07:55;;;;;;;14.75;4.63;;;12.20;99.90;;;;;;5034905;28;20030;-64
2022/11/22 13:10:39;;;;;;;16.17;3.83;;;12.30;99.90;;;;;;5035392;28;20033;-64
2022/11/22 13:13:09;;;;;;;;;;;12.30;99.90;;;;;;5035402;28;20483;-64